createdAt,value
2019-04-25T00:02:22.257Z,35.70
2019-04-25T00:04:51.559Z,35.80
2019-04-25T00:07:21.677Z,36.10
2019-04-25T00:09:54.929Z,36.10
2019-04-25T00:12:24.182Z,36.40
2019-04-25T00:14:52.929Z,36.70
2019-04-25T00:17:22.757Z,36.60
2019-04-25T00:19:52.812Z,37.00
2019-04-25T00:22:23.237Z,36.60
2019-04-25T00:24:59.689Z,36.80
2019-04-25T00:27:28.941Z,36.90
2019-04-25T00:29:57.619Z,37.20
2019-04-25T00:32:26.381Z,36.90
2019-04-25T00:34:55.130Z,37.20
2019-04-25T00:37:23.806Z,36.90
2019-04-25T00:39:53.470Z,37.40
2019-04-25T00:42:23.221Z,37.20
2019-04-25T00:44:52.504Z,37.20
2019-04-25T00:47:21.658Z,36.90
2019-04-25T00:49:52.096Z,37.20
2019-04-25T00:52:21.103Z,37.30
2019-04-25T00:54:52.402Z,37.30
2019-04-25T00:57:22.030Z,37.40
2019-04-25T00:59:53.144Z,37.40
2019-04-25T01:02:31.423Z,37.80
2019-04-25T01:05:01.696Z,37.20
2019-04-25T01:07:32.379Z,37.50
2019-04-25T01:10:02.480Z,37.50
2019-04-25T01:12:31.436Z,37.50
2019-04-25T01:15:01.676Z,37.70
2019-04-25T01:17:31.513Z,37.90
2019-04-25T01:20:00.276Z,37.90
2019-04-25T01:22:29.030Z,37.90
2019-04-25T01:24:57.780Z,38.20
2019-04-25T01:27:26.524Z,38.00
2019-04-25T01:29:55.565Z,38.10
2019-04-25T01:32:29.269Z,38.10
2019-04-25T01:35:00.453Z,38.30
2019-04-25T01:37:36.897Z,38.10
2019-04-25T01:40:17.902Z,38.20
2019-04-25T01:43:04.309Z,38.30
2019-04-25T01:45:34.646Z,38.50
2019-04-25T01:48:03.546Z,38.60
2019-04-25T01:50:33.208Z,38.60
2019-04-25T01:53:03.418Z,39.00
2019-04-25T01:55:33.558Z,39.00
2019-04-25T01:58:03.889Z,39.30
2019-04-25T02:00:34.304Z,39.40
2019-04-25T02:03:04.456Z,39.80
2019-04-25T02:05:33.847Z,39.60
2019-04-25T02:08:04.391Z,39.80
2019-04-25T02:10:34.425Z,39.90
2019-04-25T02:13:23.616Z,40.00
2019-04-25T02:15:54.755Z,40.20
2019-04-25T02:18:23.716Z,40.20
2019-04-25T02:20:56.553Z,40.40
2019-04-25T02:23:24.042Z,40.40
2019-04-25T02:26:06.792Z,40.40
2019-04-25T02:28:24.044Z,40.30
2019-04-25T02:30:54.746Z,40.10
2019-04-25T02:33:24.248Z,40.10
2019-04-25T02:35:55.208Z,40.10
2019-04-25T02:38:24.352Z,40.00
2019-04-25T02:40:56.300Z,40.10
2019-04-25T02:43:23.990Z,40.00
2019-04-25T02:46:07.945Z,39.90
2019-04-25T02:48:50.274Z,40.00
2019-04-25T02:51:29.339Z,40.10
2019-04-25T02:54:01.792Z,40.10
2019-04-25T02:56:34.819Z,40.10
2019-04-25T02:59:02.742Z,40.40
2019-04-25T03:01:34.082Z,40.50
2019-04-25T03:04:04.882Z,40.60
2019-04-25T03:06:34.785Z,40.50
2019-04-25T03:09:04.027Z,40.70
2019-04-25T03:11:34.669Z,40.50
2019-04-25T03:14:06.633Z,40.70
2019-04-25T03:16:34.746Z,40.70
2019-04-25T03:19:24.413Z,40.80
2019-04-25T03:21:55.169Z,40.90
2019-04-25T03:24:25.014Z,41.10
2019-04-25T03:26:54.025Z,41.10
2019-04-25T03:29:24.643Z,41.10
2019-04-25T03:31:55.176Z,41.40
2019-04-25T03:34:25.353Z,41.40
2019-04-25T03:36:53.901Z,41.80
2019-04-25T03:39:24.189Z,41.90
2019-04-25T03:41:53.951Z,41.70
2019-04-25T03:44:23.709Z,41.80
2019-04-25T03:46:53.482Z,41.90
2019-04-25T03:49:23.755Z,42.10
2019-04-25T03:51:53.824Z,42.20
2019-04-25T03:54:23.558Z,42.40
2019-04-25T03:56:55.914Z,42.40
2019-04-25T03:59:23.639Z,42.50
2019-04-25T04:01:53.791Z,42.40
2019-04-25T04:04:23.708Z,42.60
2019-04-25T04:06:53.789Z,42.80
2019-04-25T04:09:24.030Z,42.80
2019-04-25T04:11:53.473Z,42.50
2019-04-25T04:14:23.831Z,42.50
2019-04-25T04:17:10.918Z,42.50
2019-04-25T04:19:46.849Z,42.40
2019-04-25T04:22:20.188Z,42.70
2019-04-25T04:24:50.508Z,42.70
2019-04-25T04:27:19.269Z,42.80
2019-04-25T04:29:48.016Z,43.00
2019-04-25T04:32:17.377Z,42.80
2019-04-25T04:34:46.292Z,42.90
2019-04-25T04:37:16.191Z,42.90
2019-04-25T04:39:45.095Z,42.90
2019-04-25T04:42:14.878Z,43.00
2019-04-25T04:44:43.907Z,42.90
2019-04-25T04:47:14.091Z,42.70
2019-04-25T04:49:43.911Z,42.70
2019-04-25T04:52:14.349Z,42.60
2019-04-25T04:54:43.977Z,42.90
2019-04-25T04:57:23.146Z,42.70
2019-04-25T04:59:43.871Z,42.40
2019-04-25T05:02:17.378Z,42.70
2019-04-25T05:05:03.645Z,42.60
2019-04-25T05:07:39.785Z,42.20
2019-04-25T05:10:08.552Z,42.50
2019-04-25T05:12:37.225Z,42.30
2019-04-25T05:15:10.040Z,41.90
2019-04-25T05:17:38.712Z,41.90
2019-04-25T05:20:07.595Z,41.90
2019-04-25T05:22:36.360Z,41.50
2019-04-25T05:25:06.610Z,41.40
2019-04-25T05:27:46.015Z,41.80
2019-04-25T05:30:08.416Z,41.40
2019-04-25T05:32:37.208Z,41.50
2019-04-25T05:35:06.726Z,40.90
2019-04-25T05:37:35.410Z,40.90
2019-04-25T05:40:07.190Z,40.90
2019-04-25T05:42:46.683Z,41.10
2019-04-25T05:45:18.585Z,41.00
2019-04-25T05:47:47.801Z,41.10
2019-04-25T05:50:16.549Z,41.10
2019-04-25T05:52:46.006Z,41.00
2019-04-25T05:55:17.333Z,40.70
2019-04-25T05:57:49.934Z,40.80
2019-04-25T06:00:17.498Z,40.70
2019-04-25T06:02:46.260Z,40.60
2019-04-25T06:05:15.376Z,40.50
2019-04-25T06:07:44.057Z,40.10
2019-04-25T06:10:30.709Z,40.10
2019-04-25T06:13:06.826Z,39.80
2019-04-25T06:15:35.775Z,39.90
2019-04-25T06:18:06.116Z,39.90
2019-04-25T06:20:36.435Z,38.50
2019-04-25T06:23:09.825Z,38.20
2019-04-25T06:25:39.891Z,38.90
2019-04-25T06:28:13.773Z,37.60
2019-04-25T06:30:44.272Z,36.70
2019-04-25T06:33:13.372Z,36.90
2019-04-25T06:35:42.069Z,35.90
2019-04-25T06:38:10.753Z,35.20
2019-04-25T06:40:39.500Z,34.30
2019-04-25T06:43:08.116Z,34.30
2019-04-25T06:45:41.328Z,33.30
2019-04-25T06:48:11.645Z,33.20
2019-04-25T06:50:40.328Z,32.30
2019-04-25T06:53:09.072Z,31.80
2019-04-25T06:55:37.821Z,30.40
2019-04-25T06:58:12.054Z,30.00
2019-04-25T07:00:41.230Z,30.30
2019-04-25T07:03:07.501Z,30.50
2019-04-25T07:05:40.406Z,30.20
2019-04-25T07:08:06.714Z,30.20
2019-04-25T07:10:35.392Z,29.30
2019-04-25T07:13:04.350Z,29.30
2019-04-25T07:15:34.128Z,28.80
2019-04-25T07:18:03.828Z,29.00
2019-04-25T07:20:34.240Z,29.40
2019-04-25T07:23:03.709Z,28.50
2019-04-25T07:25:35.448Z,28.60
2019-04-25T07:28:24.893Z,28.60
2019-04-25T07:30:54.692Z,29.70
2019-04-25T07:33:26.892Z,29.30
2019-04-25T07:35:56.954Z,29.60
2019-04-25T07:38:25.646Z,30.70
2019-04-25T07:40:54.396Z,29.40
2019-04-25T07:43:23.396Z,29.10
2019-04-25T07:45:53.545Z,29.60
2019-04-25T07:48:23.283Z,30.00
2019-04-25T07:50:53.706Z,30.10
2019-04-25T07:53:24.034Z,29.10
2019-04-25T07:55:54.162Z,29.40
2019-04-25T07:58:35.554Z,29.80
2019-04-25T08:00:54.979Z,29.70
2019-04-25T08:03:23.809Z,29.80
2019-04-25T08:05:53.367Z,29.60
2019-04-25T08:08:23.502Z,29.10
2019-04-25T08:11:04.070Z,29.30
2019-04-25T08:13:35.128Z,29.40
2019-04-25T08:16:05.485Z,29.60
2019-04-25T08:18:35.103Z,29.90
2019-04-25T08:21:04.681Z,29.60
2019-04-25T08:23:36.703Z,29.50
2019-04-25T08:26:04.218Z,29.20
2019-04-25T08:28:34.486Z,29.50
2019-04-25T08:31:03.618Z,28.90
2019-04-25T08:33:34.224Z,29.30
2019-04-25T08:36:08.236Z,29.30
2019-04-25T08:38:34.673Z,29.00
2019-04-25T08:41:04.080Z,29.10
2019-04-25T08:43:36.328Z,29.10
2019-04-25T08:46:04.186Z,29.60
2019-04-25T08:48:35.747Z,28.10
2019-04-25T08:51:13.470Z,27.90
2019-04-25T08:53:49.321Z,27.50
2019-04-25T08:56:19.703Z,27.50
2019-04-25T08:59:07.984Z,27.90
2019-04-25T09:01:45.189Z,27.40
2019-04-25T09:04:25.536Z,27.60
2019-04-25T09:06:54.355Z,27.60
2019-04-25T09:09:23.597Z,27.50
2019-04-25T09:11:52.329Z,27.90
2019-04-25T09:14:21.004Z,28.00
2019-04-25T09:16:49.780Z,27.50
2019-04-25T09:19:18.453Z,27.30
2019-04-25T09:21:49.523Z,27.00
2019-04-25T09:24:17.451Z,27.40
2019-04-25T09:26:46.197Z,26.40
2019-04-25T09:29:19.325Z,26.90
2019-04-25T09:31:46.077Z,26.50
2019-04-25T09:34:14.807Z,26.20
2019-04-25T09:36:44.021Z,26.20
2019-04-25T09:39:17.970Z,26.50
2019-04-25T09:41:46.746Z,26.60
2019-04-25T09:44:17.062Z,26.90
2019-04-25T09:46:46.904Z,26.50
2019-04-25T09:49:20.462Z,27.50
2019-04-25T09:51:50.846Z,27.70
2019-04-25T09:54:23.820Z,28.00
2019-04-25T09:57:10.247Z,27.80
2019-04-25T09:59:39.359Z,28.00
2019-04-25T10:02:08.929Z,27.80
2019-04-25T10:04:37.939Z,27.80
2019-04-25T10:07:06.897Z,27.50
2019-04-25T10:09:35.643Z,27.80
2019-04-25T10:12:04.384Z,27.70
2019-04-25T10:14:38.968Z,28.00
2019-04-25T10:17:07.806Z,27.50
2019-04-25T10:19:36.938Z,27.90
2019-04-25T10:22:06.404Z,28.20
2019-04-25T10:24:35.154Z,27.60
2019-04-25T10:27:03.892Z,27.60
2019-04-25T10:29:41.301Z,27.40
2019-04-25T10:32:04.313Z,27.70
2019-04-25T10:34:33.398Z,27.60
2019-04-25T10:37:03.275Z,27.70
2019-04-25T10:39:33.813Z,27.90
2019-04-25T10:42:03.602Z,27.70
2019-04-25T10:44:33.894Z,28.00
2019-04-25T10:47:02.662Z,28.00
2019-04-25T10:49:31.413Z,27.30
2019-04-25T10:52:00.091Z,27.60
2019-04-25T10:54:28.832Z,27.40
2019-04-25T10:56:57.509Z,27.40
2019-04-25T10:59:26.258Z,27.90
2019-04-25T11:01:55.200Z,27.40
2019-04-25T11:04:25.583Z,27.50
2019-04-25T11:06:55.261Z,27.80
2019-04-25T11:09:25.465Z,28.10
2019-04-25T11:11:54.208Z,27.50
2019-04-25T11:14:23.902Z,26.80
2019-04-25T11:16:54.971Z,27.30
2019-04-25T11:19:23.891Z,27.90
2019-04-25T11:21:53.841Z,27.10
2019-04-25T11:24:23.719Z,27.20
2019-04-25T11:26:55.084Z,27.30
2019-04-25T11:29:24.001Z,27.20
2019-04-25T11:31:53.399Z,27.30
2019-04-25T11:34:22.848Z,27.20
2019-04-25T11:36:51.666Z,27.40
2019-04-25T11:39:40.341Z,27.20
2019-04-25T11:42:10.065Z,27.50
2019-04-25T11:44:38.905Z,27.20
2019-04-25T11:47:08.745Z,27.20
2019-04-25T11:49:37.561Z,27.60
2019-04-25T11:52:06.572Z,27.30
2019-04-25T11:54:35.318Z,27.30
2019-04-25T11:57:04.065Z,27.40
2019-04-25T11:59:34.160Z,27.60
2019-04-25T12:02:04.829Z,27.40
2019-04-25T12:04:33.503Z,27.80
2019-04-25T12:07:04.232Z,28.10
2019-04-25T12:09:33.656Z,27.80
2019-04-25T12:12:03.561Z,28.00
2019-04-25T12:14:34.153Z,27.90
2019-04-25T12:17:03.780Z,27.80
2019-04-25T12:19:37.340Z,28.10
2019-04-25T12:22:04.074Z,28.00
2019-04-25T12:24:33.502Z,28.10
2019-04-25T12:27:04.140Z,28.50
2019-04-25T12:29:33.676Z,28.60
2019-04-25T12:32:03.904Z,28.10
2019-04-25T12:34:33.808Z,28.00
2019-04-25T12:37:03.826Z,28.10
2019-04-25T12:39:34.103Z,28.30
2019-04-25T12:42:04.308Z,28.30
2019-04-25T12:44:34.905Z,29.00
2019-04-25T12:47:11.025Z,28.60
2019-04-25T12:49:39.778Z,28.20
2019-04-25T12:52:08.376Z,28.10
2019-04-25T12:54:37.120Z,28.30
2019-04-25T12:57:06.747Z,28.10
2019-04-25T12:59:35.417Z,28.20
2019-04-25T13:02:04.575Z,28.60
2019-04-25T13:04:34.990Z,29.10
2019-04-25T13:07:05.247Z,29.80
2019-04-25T13:09:34.205Z,29.90
2019-04-25T13:12:04.315Z,29.80
2019-04-25T13:14:33.112Z,29.40
2019-04-25T13:17:01.724Z,28.80
2019-04-25T13:19:30.466Z,29.10
2019-04-25T13:21:59.140Z,28.80
2019-04-25T13:24:27.884Z,28.60
2019-04-25T13:26:58.579Z,29.00
2019-04-25T13:29:34.492Z,29.70
2019-04-25T13:32:19.715Z,29.80
2019-04-25T13:34:53.778Z,30.20
2019-04-25T13:37:24.084Z,29.70
2019-04-25T13:39:54.088Z,29.50
2019-04-25T13:42:23.282Z,29.40
2019-04-25T13:44:52.021Z,29.50
2019-04-25T13:47:20.937Z,29.70
2019-04-25T13:49:50.508Z,29.90
2019-04-25T13:52:19.330Z,29.80
2019-04-25T13:54:48.145Z,29.90
2019-04-25T13:57:16.748Z,29.80
2019-04-25T13:59:45.881Z,29.90
2019-04-25T14:02:14.947Z,30.10
2019-04-25T14:04:44.205Z,30.10
2019-04-25T14:07:13.306Z,30.20
2019-04-25T14:09:43.060Z,30.00
2019-04-25T14:12:13.986Z,30.00
2019-04-25T14:14:44.112Z,30.40
2019-04-25T14:17:20.377Z,30.40
2019-04-25T14:20:06.661Z,31.10
2019-04-25T14:22:35.428Z,31.20
2019-04-25T14:25:05.544Z,31.20
2019-04-25T14:27:34.364Z,31.00
2019-04-25T14:30:03.903Z,31.10
2019-04-25T14:32:33.930Z,31.30
2019-04-25T14:35:03.443Z,31.90
2019-04-25T14:37:39.060Z,31.20
2019-04-25T14:40:04.071Z,31.40
2019-04-25T14:42:33.179Z,31.70
2019-04-25T14:45:02.080Z,32.00
2019-04-25T14:47:31.604Z,31.70
2019-04-25T14:50:00.432Z,32.20
2019-04-25T14:52:29.116Z,32.00
2019-04-25T14:55:15.513Z,31.30
2019-04-25T14:57:44.200Z,31.40
2019-04-25T15:00:21.665Z,31.30
2019-04-25T15:02:51.263Z,32.00
2019-04-25T15:05:20.122Z,31.60
2019-04-25T15:07:48.735Z,31.80
2019-04-25T15:10:17.482Z,32.30
2019-04-25T15:12:46.164Z,32.70
2019-04-25T15:15:15.101Z,33.30
2019-04-25T15:17:46.616Z,33.00
2019-04-25T15:20:14.109Z,33.00
2019-04-25T15:22:42.867Z,32.70
2019-04-25T15:25:11.537Z,32.70
2019-04-25T15:27:40.327Z,33.10
2019-04-25T15:30:10.708Z,32.80
2019-04-25T15:32:39.471Z,32.70
2019-04-25T15:35:09.836Z,33.20
2019-04-25T15:37:40.234Z,33.20
2019-04-25T15:40:16.998Z,33.30
2019-04-25T15:42:53.201Z,33.30
2019-04-25T15:45:23.452Z,33.50
2019-04-25T15:47:52.364Z,33.90
2019-04-25T15:50:21.043Z,34.20
2019-04-25T15:52:51.659Z,34.20
2019-04-25T15:55:20.357Z,34.80
2019-04-25T15:57:49.105Z,34.60
2019-04-25T16:00:19.897Z,35.20
2019-04-25T16:02:48.650Z,35.40
2019-04-25T16:05:17.328Z,35.40
2019-04-25T16:07:46.073Z,36.00
2019-04-25T16:10:15.286Z,36.00
2019-04-25T16:12:44.032Z,35.90
2019-04-25T16:15:12.984Z,36.00
2019-04-25T16:17:41.730Z,35.90
2019-04-25T16:20:10.650Z,36.30
2019-04-25T16:22:39.445Z,36.50
2019-04-25T16:25:08.366Z,36.50
2019-04-25T16:27:37.117Z,36.00
2019-04-25T16:30:07.905Z,36.50
2019-04-25T16:32:36.710Z,36.70
2019-04-25T16:35:07.010Z,36.80
2019-04-25T16:37:36.640Z,37.30
2019-04-25T16:40:06.326Z,37.40
2019-04-25T16:42:38.266Z,37.50
2019-04-25T16:45:07.937Z,37.50
2019-04-25T16:47:44.425Z,37.60
2019-04-25T16:50:15.280Z,38.00
2019-04-25T16:52:43.673Z,38.50
2019-04-25T16:55:12.597Z,38.10
2019-04-25T16:57:41.981Z,38.50
2019-04-25T17:00:29.817Z,38.10
2019-04-25T17:03:02.501Z,38.20
2019-04-25T17:05:34.534Z,38.60
2019-04-25T17:08:01.294Z,38.90
2019-04-25T17:10:31.431Z,39.10
2019-04-25T17:13:00.204Z,39.30
2019-04-25T17:15:46.865Z,39.10
2019-04-25T17:18:34.031Z,39.20
2019-04-25T17:21:07.196Z,39.40
2019-04-25T17:23:39.675Z,39.50
2019-04-25T17:26:10.125Z,39.80
2019-04-25T17:28:41.197Z,39.90
2019-04-25T17:31:11.644Z,40.20
2019-04-25T17:33:47.803Z,40.60
2019-04-25T17:36:18.310Z,40.70
2019-04-25T17:38:54.283Z,40.20
2019-04-25T17:41:23.076Z,40.30
2019-04-25T17:43:51.740Z,40.30
2019-04-25T17:46:22.103Z,40.50
2019-04-25T17:48:50.773Z,40.50
2019-04-25T17:51:19.528Z,40.40
2019-04-25T17:53:48.203Z,40.40
2019-04-25T17:56:17.038Z,40.80
2019-04-25T17:58:45.783Z,41.00
2019-04-25T18:01:16.273Z,40.90
2019-04-25T18:03:45.056Z,41.40
2019-04-25T18:06:13.835Z,41.60
2019-04-25T18:08:42.615Z,41.60
2019-04-25T18:11:11.464Z,41.60
2019-04-25T18:13:41.097Z,41.50
2019-04-25T18:16:11.510Z,41.80
2019-04-25T18:18:47.612Z,41.80
2019-04-25T18:21:16.489Z,41.90
2019-04-25T18:23:46.898Z,41.90
2019-04-25T18:26:19.956Z,42.00
2019-04-25T18:28:53.274Z,42.20
2019-04-25T18:31:22.069Z,42.10
2019-04-25T18:33:52.608Z,42.40
2019-04-25T18:36:38.149Z,42.40
2019-04-25T18:39:21.147Z,43.00
2019-04-25T18:42:08.076Z,42.90
2019-04-25T18:44:37.850Z,42.90
2019-04-25T18:47:06.606Z,42.80
2019-04-25T18:49:37.198Z,42.80
2019-04-25T18:52:07.397Z,42.90
2019-04-25T18:54:47.444Z,42.70
2019-04-25T18:57:27.041Z,42.70
2019-04-25T18:59:57.356Z,42.60
2019-04-25T19:02:27.673Z,42.70
2019-04-25T19:05:15.903Z,42.50
2019-04-25T19:07:45.355Z,42.40
2019-04-25T19:10:14.565Z,42.60
2019-04-25T19:12:43.338Z,42.50
2019-04-25T19:15:12.333Z,42.50
2019-04-25T19:17:41.336Z,42.60
2019-04-25T19:20:10.477Z,42.70
2019-04-25T19:22:40.132Z,42.80
2019-04-25T19:25:09.049Z,43.30
2019-04-25T19:27:37.806Z,43.00
2019-04-25T19:30:09.724Z,43.00
2019-04-25T19:32:38.401Z,43.10
2019-04-25T19:35:07.419Z,43.20
2019-04-25T19:37:36.101Z,43.70
2019-04-25T19:40:22.982Z,43.70
2019-04-25T19:43:05.449Z,44.00
2019-04-25T19:45:34.218Z,44.00
2019-04-25T19:48:03.019Z,44.20
2019-04-25T19:50:31.698Z,44.50
2019-04-25T19:53:02.102Z,44.70
2019-04-25T19:55:30.846Z,45.10
2019-04-25T19:57:59.530Z,45.20
2019-04-25T20:00:28.281Z,45.20
2019-04-25T20:02:58.595Z,45.20
2019-04-25T20:05:31.705Z,45.40
2019-04-25T20:08:04.062Z,45.40
2019-04-25T20:10:43.702Z,45.50
2019-04-25T20:13:12.836Z,45.60
2019-04-25T20:15:41.585Z,45.80
2019-04-25T20:18:10.299Z,45.80
2019-04-25T20:20:38.965Z,46.10
2019-04-25T20:23:07.724Z,45.90
2019-04-25T20:25:36.469Z,45.90
2019-04-25T20:28:05.220Z,46.10
2019-04-25T20:30:33.981Z,46.30
2019-04-25T20:33:02.797Z,46.40
2019-04-25T20:35:31.481Z,46.80
2019-04-25T20:38:00.239Z,46.90
2019-04-25T20:40:28.983Z,47.00
2019-04-25T20:42:57.661Z,47.10
2019-04-25T20:45:26.341Z,47.30
2019-04-25T20:47:55.030Z,47.30
2019-04-25T20:50:23.853Z,47.70
2019-04-25T20:52:52.832Z,47.60
2019-04-25T20:55:21.580Z,48.80
2019-04-25T20:57:51.176Z,48.70
2019-04-25T21:00:23.994Z,48.80
2019-04-25T21:02:52.673Z,48.90
2019-04-25T21:05:21.420Z,49.20
2019-04-25T21:07:51.073Z,49.30
2019-04-25T21:10:20.153Z,49.70
2019-04-25T21:12:50.220Z,49.80
2019-04-25T21:15:35.813Z,49.80
2019-04-25T21:18:23.777Z,50.20
2019-04-25T21:20:53.317Z,50.40
2019-04-25T21:23:22.011Z,49.90
2019-04-25T21:25:51.578Z,49.50
2019-04-25T21:28:20.444Z,48.90
2019-04-25T21:30:49.258Z,49.20
2019-04-25T21:33:17.941Z,49.10
2019-04-25T21:35:46.918Z,49.20
2019-04-25T21:38:15.801Z,49.10
2019-04-25T21:40:48.848Z,49.20
2019-04-25T21:43:19.369Z,49.00
2019-04-25T21:45:48.249Z,49.40
2019-04-25T21:48:17.105Z,50.00
2019-04-25T21:50:46.080Z,50.10
2019-04-25T21:53:14.756Z,50.20
2019-04-25T21:55:43.641Z,49.90
2019-04-25T21:58:12.702Z,50.50
2019-04-25T22:00:52.312Z,50.60
2019-04-25T22:03:23.192Z,50.60
2019-04-25T22:05:52.144Z,51.00
2019-04-25T22:08:20.930Z,51.30
2019-04-25T22:10:49.608Z,51.70
2019-04-25T22:13:18.729Z,51.70
2019-04-25T22:15:47.785Z,52.00
2019-04-25T22:18:16.833Z,52.40
2019-04-25T22:20:45.513Z,52.90
2019-04-25T22:23:14.482Z,52.90
2019-04-25T22:25:43.354Z,52.70
2019-04-25T22:28:12.361Z,53.00
2019-04-25T22:30:43.094Z,53.50
2019-04-25T22:33:16.486Z,53.40
2019-04-25T22:35:46.804Z,53.20
2019-04-25T22:38:15.742Z,53.70
2019-04-25T22:40:44.442Z,53.30
2019-04-25T22:43:13.425Z,53.80
2019-04-25T22:45:42.551Z,53.70
2019-04-25T22:48:11.258Z,53.20
2019-04-25T22:50:40.018Z,53.90
2019-04-25T22:53:21.075Z,53.70
2019-04-25T22:55:39.043Z,53.10
2019-04-25T22:58:07.839Z,53.10
2019-04-25T23:00:38.391Z,54.30
2019-04-25T23:03:09.347Z,54.30
2019-04-25T23:05:42.750Z,54.60
2019-04-25T23:08:12.609Z,54.20
2019-04-25T23:10:41.317Z,54.10
2019-04-25T23:13:10.890Z,54.30
2019-04-25T23:15:39.681Z,54.60
2019-04-25T23:18:09.373Z,53.60
2019-04-25T23:20:38.090Z,53.40
2019-04-25T23:23:07.679Z,53.70
2019-04-25T23:25:54.041Z,53.30
2019-04-25T23:28:24.639Z,52.10
2019-04-25T23:30:57.949Z,51.10
2019-04-25T23:33:26.832Z,51.10
2019-04-25T23:35:55.616Z,50.70
2019-04-25T23:38:24.304Z,50.80
2019-04-25T23:40:52.998Z,50.70
2019-04-25T23:43:21.937Z,51.50
2019-04-25T23:45:50.692Z,51.20
2019-04-25T23:48:19.678Z,51.50
2019-04-25T23:50:48.360Z,52.00
2019-04-25T23:53:17.113Z,52.50
2019-04-25T23:55:45.864Z,52.40
2019-04-25T23:58:14.662Z,52.60
